createdAt,value
2023-05-01T00:03:01.847Z,4.93
2023-05-01T00:06:10.901Z,5.50
2023-05-01T00:09:16.157Z,5.43
2023-05-01T00:12:21.864Z,5.18
2023-05-01T00:15:27.319Z,5.10
2023-05-01T00:18:33.352Z,5.28
2023-05-01T00:21:41.446Z,4.57
2023-05-01T00:24:48.370Z,4.55
2023-05-01T00:27:53.979Z,3.97
2023-05-01T00:31:00.193Z,3.88
2023-05-01T00:34:05.964Z,4.05
2023-05-01T00:37:14.480Z,3.83
2023-05-01T00:40:20.068Z,4.43
2023-05-01T00:43:25.580Z,3.33
2023-05-01T00:46:31.552Z,4.22
2023-05-01T00:49:37.190Z,3.70
2023-05-01T00:52:45.143Z,3.60
2023-05-01T00:55:50.591Z,3.58
2023-05-01T00:58:55.993Z,3.53
2023-05-01T01:02:02.621Z,4.00
2023-05-01T01:05:08.392Z,3.30
2023-05-01T01:08:20.102Z,3.60
2023-05-01T01:11:28.081Z,3.60
2023-05-01T01:14:36.288Z,3.58
2023-05-01T01:17:45.707Z,3.53
2023-05-01T01:20:53.698Z,3.65
2023-05-01T01:24:19.721Z,3.63
2023-05-01T01:27:43.028Z,3.72
2023-05-01T01:31:00.672Z,3.58
2023-05-01T01:34:11.291Z,3.90
2023-05-01T01:37:20.631Z,3.60
2023-05-01T01:40:27.769Z,3.25
2023-05-01T01:43:36.375Z,3.85
2023-05-01T01:46:44.431Z,3.90
2023-05-01T01:49:55.208Z,3.33
2023-05-01T01:53:03.695Z,3.85
2023-05-01T01:56:10.074Z,3.70
2023-05-01T01:59:17.272Z,3.95
2023-05-01T02:02:24.590Z,3.90
2023-05-01T02:05:34.986Z,3.72
2023-05-01T02:08:41.252Z,3.80
2023-05-01T02:11:47.289Z,3.80
2023-05-01T02:14:53.319Z,4.18
2023-05-01T02:17:58.907Z,3.90
2023-05-01T02:21:07.752Z,3.83
2023-05-01T02:24:15.660Z,3.67
2023-05-01T02:27:23.707Z,3.85
2023-05-01T02:30:28.896Z,3.63
2023-05-01T02:33:34.287Z,3.75
2023-05-01T02:36:42.662Z,3.55
2023-05-01T02:39:48.090Z,3.95
2023-05-01T02:42:54.828Z,3.15
2023-05-01T02:46:01.121Z,3.70
2023-05-01T02:49:07.412Z,3.38
2023-05-01T02:52:15.667Z,3.72
2023-05-01T02:58:27.051Z,3.22
2023-05-01T03:01:33.284Z,3.65
2023-05-01T03:04:38.862Z,2.90
2023-05-01T03:07:47.938Z,3.20
2023-05-01T03:10:53.374Z,3.40
2023-05-01T03:13:59.773Z,3.10
2023-05-01T03:17:05.168Z,2.85
2023-05-01T03:20:11.570Z,3.20
2023-05-01T03:23:19.841Z,3.08
2023-05-01T03:26:25.586Z,3.38
2023-05-01T03:29:31.514Z,3.45
2023-05-01T03:32:37.613Z,3.75
2023-05-01T03:35:44.839Z,3.83
2023-05-01T03:38:53.018Z,2.92
2023-05-01T03:42:13.656Z,3.28
2023-05-01T03:45:21.030Z,4.13
2023-05-01T03:48:26.437Z,4.22
2023-05-01T03:51:32.152Z,4.18
2023-05-01T03:54:40.325Z,3.72
2023-05-01T03:57:56.635Z,4.20
2023-05-01T04:01:03.235Z,4.22
2023-05-01T04:04:09.853Z,4.05
2023-05-01T04:07:17.553Z,4.70
2023-05-01T04:10:28.133Z,4.20
2023-05-01T04:13:39.631Z,4.43
2023-05-01T04:16:45.762Z,4.60
2023-05-01T04:19:51.144Z,4.22
2023-05-01T04:22:56.770Z,4.35
2023-05-01T04:26:05.389Z,4.70
2023-05-01T04:29:10.889Z,4.72
2023-05-01T04:32:17.166Z,5.53
2023-05-01T04:35:22.480Z,4.97
2023-05-01T04:38:29.286Z,5.10
2023-05-01T04:41:38.259Z,5.50
2023-05-01T04:44:44.110Z,5.18
2023-05-01T04:47:49.994Z,4.75
2023-05-01T04:50:55.529Z,5.10
2023-05-01T04:54:05.075Z,5.22
2023-05-01T04:57:15.593Z,4.50
2023-05-01T05:00:21.654Z,5.38
2023-05-01T05:03:32.880Z,4.88
2023-05-01T05:06:38.300Z,4.63
2023-05-01T05:09:47.025Z,4.68
2023-05-01T05:12:55.168Z,4.80
2023-05-01T05:16:00.674Z,5.00
2023-05-01T05:19:06.677Z,5.18
2023-05-01T05:22:16.246Z,4.15
2023-05-01T05:25:41.782Z,4.80
2023-05-01T05:28:50.099Z,4.35
2023-05-01T05:35:02.718Z,4.90
2023-05-01T05:38:08.382Z,4.45
2023-05-01T05:41:16.388Z,4.53
2023-05-01T05:44:25.036Z,4.00
2023-05-01T05:47:30.945Z,4.07
2023-05-01T05:50:36.703Z,4.35
2023-05-01T05:53:41.932Z,4.80
2023-05-01T05:56:48.256Z,3.92
2023-05-01T05:59:57.956Z,3.58
2023-05-01T06:03:05.788Z,4.75
2023-05-01T06:06:12.920Z,3.65
2023-05-01T06:09:20.611Z,3.95
2023-05-01T06:12:26.094Z,4.28
2023-05-01T06:15:34.640Z,3.90
2023-05-01T06:18:40.163Z,4.40
2023-05-01T06:21:46.016Z,3.78
2023-05-01T06:24:51.175Z,3.88
2023-05-01T06:27:57.062Z,4.38
2023-05-01T06:31:05.838Z,3.50
2023-05-01T06:34:15.538Z,4.57
2023-05-01T06:37:30.950Z,4.30
2023-05-01T06:40:36.629Z,3.92
2023-05-01T06:43:42.077Z,3.58
2023-05-01T06:46:50.656Z,3.70
2023-05-01T06:49:56.340Z,3.90
2023-05-01T06:53:03.144Z,4.82
2023-05-01T06:56:09.485Z,4.53
2023-05-01T06:59:14.762Z,4.90
2023-05-01T07:02:23.034Z,4.75
2023-05-01T07:05:28.158Z,5.15
2023-05-01T07:08:33.822Z,5.18
2023-05-01T07:11:39.985Z,6.22
2023-05-01T07:14:45.496Z,5.35
2023-05-01T07:17:56.852Z,4.63
2023-05-01T07:21:02.339Z,4.70
2023-05-01T07:24:08.125Z,4.55
2023-05-01T07:27:14.326Z,3.88
2023-05-01T07:30:19.740Z,4.57
2023-05-01T07:33:28.110Z,4.90
2023-05-01T07:39:39.665Z,4.28
2023-05-01T07:42:45.292Z,4.30
2023-05-01T07:45:58.105Z,4.18
2023-05-01T07:49:05.988Z,4.72
2023-05-01T07:52:11.553Z,4.25
2023-05-01T07:55:19.763Z,3.67
2023-05-01T07:58:26.059Z,4.22
2023-05-01T08:01:31.794Z,3.85
2023-05-01T08:04:40.118Z,3.78
2023-05-01T08:07:45.376Z,3.30
2023-05-01T08:10:50.913Z,4.25
2023-05-01T08:13:56.627Z,3.85
2023-05-01T08:17:01.837Z,3.45
2023-05-01T08:20:10.567Z,3.50
2023-05-01T08:23:15.963Z,3.63
2023-05-01T08:26:22.637Z,3.38
2023-05-01T08:29:28.266Z,3.17
2023-05-01T08:32:34.143Z,3.40
2023-05-01T08:35:42.412Z,3.38
2023-05-01T08:38:47.643Z,3.47
2023-05-01T08:41:53.416Z,4.13
2023-05-01T08:44:59.715Z,3.15
2023-05-01T08:48:08.111Z,3.53
2023-05-01T08:51:19.097Z,3.20
2023-05-01T08:54:26.556Z,3.17
2023-05-01T08:57:33.811Z,3.70
2023-05-01T09:00:40.288Z,3.50
2023-05-01T09:03:46.997Z,3.10
2023-05-01T09:06:56.893Z,3.40
2023-05-01T09:10:02.804Z,3.35
2023-05-01T09:13:10.339Z,3.75
2023-05-01T09:16:16.061Z,3.42
2023-05-01T09:19:21.681Z,3.35
2023-05-01T09:22:29.749Z,2.90
2023-05-01T09:25:35.006Z,3.42
2023-05-01T09:28:45.425Z,3.13
2023-05-01T09:31:51.067Z,3.28
2023-05-01T09:34:56.601Z,3.10
2023-05-01T09:38:04.650Z,3.28
2023-05-01T09:41:10.158Z,3.15
2023-05-01T09:44:20.875Z,3.08
2023-05-01T09:47:28.248Z,3.38
2023-05-01T09:50:35.035Z,3.20
2023-05-01T09:53:43.519Z,3.55
2023-05-01T09:56:50.473Z,3.10
2023-05-01T10:00:08.726Z,3.00
2023-05-01T10:03:17.668Z,3.50
2023-05-01T10:06:32.587Z,2.92
2023-05-01T10:09:41.814Z,3.05
2023-05-01T10:12:47.226Z,3.63
2023-05-01T10:15:52.978Z,2.72
2023-05-01T10:18:59.087Z,2.92
2023-05-01T10:22:04.699Z,2.58
2023-05-01T10:25:14.450Z,2.28
2023-05-01T10:28:20.172Z,2.15
2023-05-01T10:31:25.670Z,2.00
2023-05-01T10:34:31.857Z,1.73
2023-05-01T10:37:41.065Z,1.67
2023-05-01T10:40:53.432Z,1.73
2023-05-01T10:44:23.035Z,2.00
2023-05-01T10:47:43.199Z,1.50
2023-05-01T10:51:09.703Z,1.73
2023-05-01T10:54:30.582Z,2.22
2023-05-01T10:57:48.188Z,1.83
2023-05-01T11:01:24.090Z,1.83
2023-05-01T11:04:44.730Z,1.90
2023-05-01T11:07:49.933Z,1.95
2023-05-01T11:10:55.309Z,1.90
2023-05-01T11:14:04.568Z,2.50
2023-05-01T11:17:10.524Z,1.98
2023-05-01T11:20:16.567Z,1.75
2023-05-01T11:23:22.996Z,2.22
2023-05-01T11:26:30.668Z,1.73
2023-05-01T11:29:40.776Z,1.45
2023-05-01T11:32:47.113Z,1.60
2023-05-01T11:35:59.769Z,2.40
2023-05-01T11:39:05.072Z,1.50
2023-05-01T11:42:10.623Z,1.30
2023-05-01T11:45:19.064Z,1.23
2023-05-01T11:48:24.613Z,1.20
2023-05-01T11:51:30.821Z,0.95
2023-05-01T11:54:50.263Z,1.10
2023-05-01T11:57:57.377Z,1.10
2023-05-01T12:01:07.824Z,1.25
2023-05-01T12:04:14.245Z,1.40
2023-05-01T12:07:26.135Z,1.90
2023-05-01T12:10:34.051Z,1.85
2023-05-01T12:13:42.212Z,2.20
2023-05-01T12:16:50.801Z,2.20
2023-05-01T12:23:01.046Z,2.35
2023-05-01T12:26:18.537Z,2.20
2023-05-01T12:29:23.965Z,2.60
2023-05-01T12:32:35.979Z,2.55
2023-05-01T12:35:42.049Z,2.75
2023-05-01T12:38:58.327Z,2.72
2023-05-01T12:42:03.679Z,2.35
2023-05-01T12:45:10.099Z,2.22
2023-05-01T12:48:19.494Z,2.22
2023-05-01T12:51:25.202Z,2.00
2023-05-01T12:54:31.269Z,2.60
2023-05-01T12:57:36.935Z,2.30
2023-05-01T13:00:46.798Z,2.20
2023-05-01T13:03:54.966Z,2.15
2023-05-01T13:07:01.547Z,2.67
2023-05-01T13:10:07.404Z,1.83
2023-05-01T13:13:13.124Z,2.95
2023-05-01T13:16:20.571Z,2.45
2023-05-01T13:19:32.145Z,2.20
2023-05-01T13:22:38.358Z,2.38
2023-05-01T13:25:44.178Z,2.40
2023-05-01T13:28:49.978Z,2.15
2023-05-01T13:31:55.742Z,2.95
2023-05-01T13:35:05.097Z,2.17
2023-05-01T13:38:12.924Z,2.10
2023-05-01T13:41:19.844Z,2.08
2023-05-01T13:44:25.578Z,2.42
2023-05-01T13:47:30.865Z,2.00
2023-05-01T13:50:40.781Z,2.30
2023-05-01T13:53:46.203Z,1.80
2023-05-01T13:56:51.619Z,2.10
2023-05-01T13:59:56.901Z,1.98
2023-05-01T14:03:03.628Z,2.13
2023-05-01T14:06:16.348Z,2.25
2023-05-01T14:09:22.019Z,2.13
2023-05-01T14:12:29.778Z,2.33
2023-05-01T14:15:36.678Z,2.13
2023-05-01T14:18:46.989Z,1.73
2023-05-01T14:21:55.115Z,1.80
2023-05-01T14:25:01.082Z,1.60
2023-05-01T14:28:09.086Z,1.55
2023-05-01T14:31:18.925Z,1.75
2023-05-01T14:34:25.050Z,2.72
2023-05-01T14:37:35.049Z,1.88
2023-05-01T14:40:42.689Z,1.95
2023-05-01T14:43:51.511Z,2.25
2023-05-01T14:50:02.692Z,2.03
2023-05-01T14:53:12.229Z,1.90
2023-05-01T14:56:17.677Z,1.75
2023-05-01T14:59:24.823Z,2.13
2023-05-01T15:02:30.836Z,2.17
2023-05-01T15:05:38.726Z,1.95
2023-05-01T15:08:47.340Z,2.38
2023-05-01T15:14:58.404Z,2.28
2023-05-01T15:18:04.272Z,2.42
2023-05-01T15:21:10.201Z,2.88
2023-05-01T15:24:19.886Z,2.75
2023-05-01T15:27:25.597Z,2.30
2023-05-01T15:30:31.100Z,3.10
2023-05-01T15:33:36.587Z,2.42
2023-05-01T15:36:42.259Z,2.30
2023-05-01T15:39:50.030Z,2.53
2023-05-01T15:42:55.264Z,2.90
2023-05-01T15:46:01.078Z,2.72
2023-05-01T15:49:06.585Z,2.55
2023-05-01T15:52:11.700Z,2.50
2023-05-01T15:55:22.270Z,2.70
2023-05-01T15:58:27.776Z,2.35
2023-05-01T16:01:34.256Z,2.42
2023-05-01T16:04:39.866Z,2.65
2023-05-01T16:07:45.576Z,2.53
2023-05-01T16:10:54.204Z,2.22
2023-05-01T16:17:08.078Z,2.40
2023-05-01T16:20:14.784Z,3.00
2023-05-01T16:23:20.156Z,2.20
2023-05-01T16:26:29.340Z,3.10
2023-05-01T16:29:35.887Z,2.83
2023-05-01T16:32:42.687Z,2.70
2023-05-01T16:35:50.488Z,2.63
2023-05-01T16:38:58.242Z,2.83
2023-05-01T16:42:06.613Z,2.55
2023-05-01T16:48:19.232Z,2.70
2023-05-01T16:51:24.728Z,2.53
2023-05-01T16:54:35.981Z,2.45
2023-05-01T16:57:44.602Z,2.33
2023-05-01T17:00:50.136Z,2.47
2023-05-01T17:03:55.628Z,2.25
2023-05-01T17:07:01.273Z,2.08
2023-05-01T17:10:07.839Z,2.65
2023-05-01T17:13:17.465Z,2.60
2023-05-01T17:16:23.195Z,3.22
2023-05-01T17:19:28.557Z,2.70
2023-05-01T17:22:34.123Z,2.70
2023-05-01T17:25:39.611Z,3.95
2023-05-01T17:28:49.404Z,3.85
2023-05-01T17:31:54.802Z,3.15
2023-05-01T17:35:00.977Z,2.67
2023-05-01T17:38:07.026Z,2.45
2023-05-01T17:41:12.113Z,2.25
2023-05-01T17:44:20.227Z,2.40
2023-05-01T17:47:26.266Z,2.38
2023-05-01T17:50:31.646Z,2.30
2023-05-01T17:53:37.533Z,3.80
2023-05-01T17:56:42.871Z,2.60
2023-05-01T17:59:50.716Z,2.72
2023-05-01T18:02:56.498Z,2.10
2023-05-01T18:06:02.425Z,2.10
2023-05-01T18:09:09.128Z,2.08
2023-05-01T18:12:14.516Z,2.97
2023-05-01T18:15:23.160Z,2.42
2023-05-01T18:18:28.840Z,2.30
2023-05-01T18:21:35.426Z,2.30
2023-05-01T18:24:41.450Z,2.00
2023-05-01T18:27:48.354Z,2.00
2023-05-01T18:30:56.423Z,1.98
2023-05-01T18:34:02.293Z,2.15
2023-05-01T18:37:07.651Z,1.60
2023-05-01T18:40:13.377Z,1.83
2023-05-01T18:43:18.993Z,1.77
2023-05-01T18:46:27.360Z,1.27
2023-05-01T18:49:33.034Z,1.70
2023-05-01T18:52:38.884Z,1.50
2023-05-01T18:55:44.358Z,1.60
2023-05-01T18:58:50.097Z,1.75
2023-05-01T19:01:58.430Z,1.77
2023-05-01T19:05:03.760Z,1.88
2023-05-01T19:08:10.175Z,2.47
2023-05-01T19:11:15.424Z,1.40
2023-05-01T19:14:21.791Z,1.50
2023-05-01T19:17:30.057Z,1.73
2023-05-01T19:20:36.091Z,1.63
2023-05-01T19:23:43.636Z,1.50
2023-05-01T19:26:49.315Z,1.60
2023-05-01T19:29:55.142Z,1.65
2023-05-01T19:33:03.157Z,1.42
2023-05-01T19:36:09.197Z,1.60
2023-05-01T19:39:14.612Z,1.83
2023-05-01T19:42:20.071Z,1.20
2023-05-01T19:45:25.162Z,1.40
2023-05-01T19:48:33.288Z,1.60
2023-05-01T19:51:38.702Z,1.10
2023-05-01T19:54:45.105Z,1.75
2023-05-01T19:57:50.598Z,2.55
2023-05-01T20:00:59.395Z,2.25
2023-05-01T20:04:07.562Z,1.55
2023-05-01T20:07:13.221Z,1.67
2023-05-01T20:10:18.458Z,1.40
2023-05-01T20:13:25.213Z,1.50
2023-05-01T20:16:31.301Z,2.22
2023-05-01T20:19:39.960Z,2.33
2023-05-01T20:25:51.987Z,3.13
2023-05-01T20:28:57.906Z,3.05
2023-05-01T20:32:03.388Z,2.90
2023-05-01T20:35:11.824Z,2.88
2023-05-01T20:38:17.404Z,2.70
2023-05-01T20:41:24.457Z,2.30
2023-05-01T20:44:29.856Z,2.10
2023-05-01T20:47:36.015Z,2.17
2023-05-01T20:50:45.880Z,2.00
2023-05-01T20:53:51.343Z,2.33
2023-05-01T20:56:57.079Z,2.53
2023-05-01T21:00:04.415Z,2.80
2023-05-01T21:03:15.530Z,2.60
2023-05-01T21:06:23.700Z,2.35
2023-05-01T21:09:29.009Z,2.75
2023-05-01T21:12:34.136Z,2.70
2023-05-01T21:15:43.766Z,2.90
2023-05-01T21:18:49.209Z,2.15
2023-05-01T21:21:57.390Z,2.10
2023-05-01T21:25:03.462Z,1.98
2023-05-01T21:28:08.986Z,1.88
2023-05-01T21:31:15.337Z,2.20
2023-05-01T21:34:21.712Z,1.80
2023-05-01T21:37:29.766Z,1.83
2023-05-01T21:40:39.326Z,1.60
2023-05-01T21:43:44.748Z,1.90
2023-05-01T21:46:50.664Z,1.80
2023-05-01T21:49:59.145Z,1.70
2023-05-01T21:56:12.548Z,1.55
2023-05-01T21:59:19.842Z,1.60
2023-05-01T22:02:25.116Z,1.70
2023-05-01T22:05:32.351Z,1.80
2023-05-01T22:08:37.966Z,1.48
2023-05-01T22:11:45.744Z,1.70
2023-05-01T22:14:51.447Z,1.50
2023-05-01T22:17:56.973Z,1.50
2023-05-01T22:21:03.946Z,2.25
2023-05-01T22:24:09.703Z,1.92
2023-05-01T22:27:19.120Z,1.73
2023-05-01T22:30:24.403Z,1.58
2023-05-01T22:33:29.907Z,1.85
2023-05-01T22:36:35.383Z,1.35
2023-05-01T22:39:40.758Z,1.98
2023-05-01T22:42:48.658Z,1.95
2023-05-01T22:45:54.480Z,1.83
2023-05-01T22:49:01.575Z,1.70
2023-05-01T22:52:07.243Z,1.98
2023-05-01T22:55:13.157Z,1.55
2023-05-01T22:58:21.195Z,1.85
2023-05-01T23:01:27.350Z,1.85
2023-05-01T23:04:32.735Z,1.60
2023-05-01T23:07:38.558Z,2.75
2023-05-01T23:10:44.098Z,3.75
2023-05-01T23:13:52.715Z,11.60
2023-05-01T23:16:58.427Z,2.42
2023-05-01T23:20:03.614Z,2.00
2023-05-01T23:23:14.250Z,1.90
2023-05-01T23:26:26.553Z,1.90
2023-05-01T23:29:34.809Z,1.65
2023-05-01T23:32:40.017Z,2.05
2023-05-01T23:35:45.480Z,1.58
2023-05-01T23:38:51.036Z,1.98
2023-05-01T23:41:56.516Z,1.50
2023-05-01T23:45:04.545Z,1.63
2023-05-01T23:48:10.583Z,1.80
2023-05-01T23:51:15.850Z,2.05
2023-05-01T23:54:21.516Z,2.10
2023-05-01T23:57:27.428Z,1.20
